Time;durP1;ratioP1;P1;durP2;ratioP2;P2;SDS_P1;SDS_P2;PMS_P1;PMS_P2;Temp;Humidity;BMP_temperature;BMP_pressure;BME280_temperature;BME280_humidity;BME280_pressure;Samples;Min_cycle;Max_cycle;Signal;HPM_P1;HPM_P2
2024/01/08 00:00:16;;;;;;;1999.90;999.90;;;-0.30;99.90;;;;;;5072464;28;20412;-71
2024/01/08 00:02:43;;;;;;;1999.90;999.90;;;-0.30;99.90;;;;;;5076070;28;20438;-72
2024/01/08 00:05:12;;;;;;;1999.90;999.90;;;-0.20;99.90;;;;;;5074880;28;20423;-71
2024/01/08 00:07:39;;;;;;;1999.90;999.90;;;-0.30;99.90;;;;;;5071643;28;20517;-71
2024/01/08 00:10:06;;;;;;;1999.90;999.90;;;-0.20;99.90;;;;;;5071685;28;20468;-71
2024/01/08 00:12:33;;;;;;;1999.90;999.90;;;0.00;99.90;;;;;;5072320;28;20411;-71
2024/01/08 00:15:00;;;;;;;1999.90;999.90;;;-0.10;99.90;;;;;;5073134;28;20435;-72
2024/01/08 00:17:26;;;;;;;1999.90;999.90;;;-0.10;99.90;;;;;;5071894;28;20469;-71
2024/01/08 00:19:53;;;;;;;1999.90;999.90;;;-0.30;99.90;;;;;;5072072;28;20402;-69
2024/01/08 00:22:21;;;;;;;1999.90;999.90;;;-0.30;99.90;;;;;;5071563;28;20468;-72
2024/01/08 00:24:48;;;;;;;1999.90;999.90;;;-0.30;99.90;;;;;;5070968;28;20427;-70
2024/01/08 00:27:14;;;;;;;1999.90;999.90;;;-0.30;99.90;;;;;;5071815;28;20412;-72
2024/01/08 00:29:41;;;;;;;1999.90;999.90;;;-0.40;99.90;;;;;;5076656;28;20408;-72
2024/01/08 00:32:08;;;;;;;1999.90;999.90;;;-0.40;99.90;;;;;;5080842;28;20769;-72
2024/01/08 00:34:36;;;;;;;1999.90;999.90;;;-0.20;99.90;;;;;;5079669;28;20423;-72
2024/01/08 00:37:03;;;;;;;1999.90;999.90;;;-0.20;99.90;;;;;;5073828;28;20415;-72
2024/01/08 00:39:31;;;;;;;1999.90;999.90;;;-0.30;99.90;;;;;;5073875;28;20442;-72
2024/01/08 00:41:57;;;;;;;1999.90;999.90;;;-0.20;99.90;;;;;;5087641;28;20396;-73
2024/01/08 00:44:24;;;;;;;1999.90;999.90;;;-0.10;99.90;;;;;;5099558;28;20431;-75
2024/01/08 00:46:51;;;;;;;1999.90;999.90;;;-0.20;99.90;;;;;;5095226;28;20395;-73
2024/01/08 00:49:17;;;;;;;1999.90;999.90;;;-0.40;99.90;;;;;;5090841;28;20441;-73
2024/01/08 00:51:44;;;;;;;1999.90;999.90;;;-0.30;99.90;;;;;;5073067;28;20792;-71
2024/01/08 00:54:11;;;;;;;1999.90;999.90;;;-0.30;99.90;;;;;;5073762;28;20415;-71
2024/01/08 00:56:39;;;;;;;1999.90;999.90;;;-0.30;99.90;;;;;;5074400;28;21130;-71
2024/01/08 00:59:06;;;;;;;1999.90;999.90;;;-0.30;99.90;;;;;;5079438;28;20411;-72
2024/01/08 01:01:32;;;;;;;1999.90;999.90;;;-0.60;99.90;;;;;;5076877;28;20419;-70
2024/01/08 01:04:00;;;;;;;1999.90;999.90;;;-0.40;99.90;;;;;;5086431;28;20924;-70
2024/01/08 01:06:26;;;;;;;1999.90;999.90;;;-0.80;99.90;;;;;;5077895;28;20451;-70
2024/01/08 01:08:53;;;;;;;1999.90;999.90;;;-0.80;99.90;;;;;;5074214;28;20863;-70
2024/01/08 01:11:20;;;;;;;1999.90;999.90;;;-0.90;99.90;;;;;;5072073;28;20435;-70
2024/01/08 01:13:48;;;;;;;1999.90;999.90;;;-0.90;99.90;;;;;;5070570;28;20448;-71
2024/01/08 01:16:15;;;;;;;1999.90;999.90;;;-0.60;99.90;;;;;;5072578;28;20510;-68
2024/01/08 01:18:42;;;;;;;1999.90;999.90;;;-0.90;99.90;;;;;;5070634;28;20470;-70
2024/01/08 01:21:08;;;;;;;1999.90;999.90;;;-1.00;99.90;;;;;;5070821;28;20419;-70
2024/01/08 01:23:35;;;;;;;1999.90;999.90;;;-1.00;99.90;;;;;;5070426;28;20461;-70
2024/01/08 01:26:02;;;;;;;1999.90;999.90;;;-0.80;99.90;;;;;;5070800;28;20905;-70
2024/01/08 01:28:28;;;;;;;1999.90;999.90;;;-0.60;99.90;;;;;;5071841;28;20951;-68
2024/01/08 01:30:56;;;;;;;1999.90;999.90;;;-0.80;99.90;;;;;;5070832;28;20920;-70
2024/01/08 01:33:23;;;;;;;1999.90;999.90;;;-1.00;99.90;;;;;;5070124;28;20420;-70
2024/01/08 01:35:50;;;;;;;1999.90;999.90;;;-0.90;99.90;;;;;;5068659;28;20427;-70
2024/01/08 01:38:16;;;;;;;1999.90;999.90;;;-0.60;99.90;;;;;;5070245;28;20407;-69
2024/01/08 01:40:46;;;;;;;1999.90;999.90;;;-1.00;99.90;;;;;;5070108;28;20412;-69
2024/01/08 01:43:22;;;;;;;1999.90;999.90;;;-0.90;99.90;;;;;;5069976;28;20502;-69
2024/01/08 01:45:51;;;;;;;1999.90;999.90;;;-1.00;99.90;;;;;;5069749;28;20431;-70
2024/01/08 01:48:19;;;;;;;1999.90;999.90;;;-1.00;99.90;;;;;;5071949;28;20820;-69
2024/01/08 01:50:47;;;;;;;1999.90;999.90;;;-1.00;99.90;;;;;;5070165;28;20499;-70
2024/01/08 01:53:14;;;;;;;1999.90;999.90;;;-0.70;99.90;;;;;;5069794;28;20805;-69
2024/01/08 01:55:41;;;;;;;1999.90;999.90;;;-1.00;99.90;;;;;;5071138;28;20462;-70
2024/01/08 01:58:08;;;;;;;1999.90;999.90;;;-0.90;99.90;;;;;;5064501;28;20809;-71
2024/01/08 02:00:35;;;;;;;1999.90;999.90;;;-0.90;99.90;;;;;;5074842;28;20411;-70
2024/01/08 02:03:02;;;;;;;1999.90;999.90;;;-0.90;99.90;;;;;;5079384;28;20406;-70
2024/01/08 02:05:31;;;;;;;1999.90;999.90;;;-0.70;99.90;;;;;;5083766;28;20931;-71
2024/01/08 02:07:59;;;;;;;1999.90;999.90;;;-0.90;99.90;;;;;;5072338;28;20411;-71
2024/01/08 02:10:26;;;;;;;1999.90;999.90;;;-0.80;99.90;;;;;;5069820;28;20438;-70
2024/01/08 02:12:53;;;;;;;1999.90;999.90;;;-0.80;99.90;;;;;;5074196;28;20409;-70
2024/01/08 02:15:20;;;;;;;1999.90;999.90;;;-0.80;99.90;;;;;;5073965;28;20427;-67
2024/01/08 02:17:47;;;;;;;1999.90;999.90;;;-0.80;99.90;;;;;;5072114;28;20419;-70
2024/01/08 02:20:13;;;;;;;1999.90;999.90;;;-0.90;99.90;;;;;;5069518;28;20889;-70
2024/01/08 02:22:42;;;;;;;1999.90;999.90;;;-0.50;99.90;;;;;;5070031;28;20412;-68
2024/01/08 02:25:09;;;;;;;1999.90;999.90;;;-0.90;99.90;;;;;;5066166;28;20432;-69
2024/01/08 02:27:35;;;;;;;1999.90;999.90;;;-1.10;99.90;;;;;;5069196;28;20431;-67
2024/01/08 02:30:02;;;;;;;1999.90;999.90;;;-1.00;99.90;;;;;;5074646;28;20410;-68
2024/01/08 02:32:29;;;;;;;1999.90;999.90;;;-1.00;99.90;;;;;;5080206;28;20413;-71
2024/01/08 02:34:56;;;;;;;1999.90;999.90;;;-0.80;99.90;;;;;;5075707;28;20423;-71
2024/01/08 02:37:23;;;;;;;1999.90;999.90;;;-1.00;99.90;;;;;;5064772;28;20411;-70
2024/01/08 02:39:51;;;;;;;1999.90;999.90;;;-0.80;99.90;;;;;;5067831;28;20415;-71
2024/01/08 02:42:18;;;;;;;1999.90;999.90;;;-1.00;99.90;;;;;;5069418;28;20944;-71
2024/01/08 02:44:45;;;;;;;1999.90;999.90;;;-0.90;99.90;;;;;;5079569;28;20520;-69
2024/01/08 02:47:12;;;;;;;1999.90;999.90;;;-0.90;99.90;;;;;;5069684;28;20407;-71
2024/01/08 02:49:38;;;;;;;1999.90;999.90;;;-0.90;99.90;;;;;;5068015;28;20435;-68
2024/01/08 02:52:05;;;;;;;1999.90;999.90;;;-0.70;99.90;;;;;;5065232;28;20486;-67
2024/01/08 02:54:32;;;;;;;1999.90;999.90;;;-1.00;99.90;;;;;;5067871;28;20407;-68
2024/01/08 02:57:00;;;;;;;1999.90;999.90;;;-1.00;99.90;;;;;;5068140;28;20423;-68
2024/01/08 02:59:27;;;;;;;1999.90;999.90;;;-1.10;99.90;;;;;;5069558;28;20441;-69
2024/01/08 03:01:53;;;;;;;1999.90;999.90;;;-1.10;99.90;;;;;;5076332;28;20897;-67
2024/01/08 03:04:20;;;;;;;1999.90;999.90;;;-0.90;99.90;;;;;;5069346;28;20415;-71
2024/01/08 03:06:47;;;;;;;1999.90;999.90;;;-1.30;99.90;;;;;;5068436;28;20439;-69
2024/01/08 03:09:13;;;;;;;1999.90;999.90;;;-1.40;99.90;;;;;;5068907;28;20477;-71
2024/01/08 03:11:40;;;;;;;1999.90;999.90;;;-1.40;99.90;;;;;;5082014;28;20510;-70
2024/01/08 03:14:08;;;;;;;1999.90;999.90;;;-1.40;99.90;;;;;;5089632;28;20459;-72
2024/01/08 03:16:35;;;;;;;1999.90;999.90;;;-1.40;99.90;;;;;;5070717;28;20430;-70
2024/01/08 03:19:01;;;;;;;1999.90;999.90;;;-1.50;99.90;;;;;;5070421;28;20422;-72
2024/01/08 03:21:28;;;;;;;1999.90;999.90;;;-1.50;99.90;;;;;;5078600;28;20407;-71
2024/01/08 03:23:55;;;;;;;1999.90;999.90;;;-1.60;99.90;;;;;;5081381;28;20417;-70
2024/01/08 03:26:22;;;;;;;1999.90;999.90;;;-1.50;99.90;;;;;;5072235;28;20423;-70
2024/01/08 03:28:48;;;;;;;1999.90;999.90;;;-1.50;99.90;;;;;;5072636;28;20408;-69
2024/01/08 03:31:16;;;;;;;1999.90;999.90;;;-1.40;99.90;;;;;;5081653;28;20869;-70
2024/01/08 03:33:43;;;;;;;1999.90;999.90;;;-1.50;99.90;;;;;;5073831;28;20412;-70
2024/01/08 03:36:10;;;;;;;1999.90;999.90;;;-1.40;99.90;;;;;;5071177;28;20430;-70
2024/01/08 03:38:37;;;;;;;1999.90;999.90;;;-1.50;99.90;;;;;;5072633;28;20407;-70
2024/01/08 03:41:04;;;;;;;1999.90;999.90;;;-1.50;99.90;;;;;;5072593;28;20438;-72
2024/01/08 03:43:31;;;;;;;1999.90;999.90;;;-1.70;99.90;;;;;;5073003;28;20412;-71
2024/01/08 03:45:58;;;;;;;1999.90;999.90;;;-1.90;99.90;;;;;;5068770;28;20427;-72
2024/01/08 03:48:26;;;;;;;1999.90;999.90;;;-2.10;99.90;;;;;;5071695;28;20408;-72
2024/01/08 03:50:52;;;;;;;1999.90;999.90;;;-1.90;99.90;;;;;;5068934;28;20407;-72
2024/01/08 03:53:19;;;;;;;1999.90;999.90;;;-2.40;99.90;;;;;;5072147;28;20412;-72
2024/01/08 03:55:46;;;;;;;1999.90;999.90;;;-2.50;99.90;;;;;;5071598;28;20426;-72
2024/01/08 03:58:13;;;;;;;1999.90;999.90;;;-2.70;99.90;;;;;;5068497;28;20785;-70
2024/01/08 04:00:39;;;;;;;1999.90;999.90;;;-2.70;99.90;;;;;;5078220;28;20502;-72
2024/01/08 04:03:06;;;;;;;1999.90;999.90;;;-2.50;99.90;;;;;;5081591;28;20464;-72
2024/01/08 04:05:34;;;;;;;1999.90;999.90;;;-2.70;99.90;;;;;;5071171;28;20444;-72
2024/01/08 04:08:01;;;;;;;1999.90;999.90;;;-2.80;99.90;;;;;;5072074;28;20920;-72
2024/01/08 04:10:28;;;;;;;1999.90;999.90;;;-2.70;99.90;;;;;;5072841;28;20416;-73
2024/01/08 04:12:54;;;;;;;1999.90;999.90;;;-2.70;99.90;;;;;;5076843;28;20446;-72
2024/01/08 04:15:23;;;;;;;1999.90;999.90;;;-2.40;99.90;;;;;;5071517;28;21356;-73
2024/01/08 04:17:50;;;;;;;1999.90;999.90;;;-2.80;99.90;;;;;;5075308;28;20409;-72
2024/01/08 04:20:17;;;;;;;1999.90;999.90;;;-2.90;99.90;;;;;;5088028;28;20783;-70
2024/01/08 04:22:46;;;;;;;1999.90;999.90;;;-2.90;99.90;;;;;;5071234;28;20420;-70
2024/01/08 04:25:12;;;;;;;1999.90;999.90;;;-2.90;99.90;;;;;;5073687;28;20501;-69
2024/01/08 04:27:38;;;;;;;1999.90;999.90;;;-2.90;99.90;;;;;;5070421;28;20416;-70
2024/01/08 04:30:07;;;;;;;1999.90;999.90;;;-3.00;99.90;;;;;;5076664;28;20437;-70
2024/01/08 04:32:33;;;;;;;1999.90;999.90;;;-3.10;99.90;;;;;;5070393;28;20415;-73
2024/01/08 04:35:00;;;;;;;1999.90;999.90;;;-3.20;99.90;;;;;;5070692;28;20416;-72
2024/01/08 04:37:27;;;;;;;1999.90;999.90;;;-3.20;99.90;;;;;;5068027;28;20416;-72
2024/01/08 04:39:55;;;;;;;1999.90;999.90;;;-3.20;99.90;;;;;;5071251;28;20472;-72
2024/01/08 04:42:22;;;;;;;1999.90;999.90;;;-3.40;99.90;;;;;;5071311;28;20419;-71
2024/01/08 04:44:49;;;;;;;1999.90;999.90;;;-3.40;99.90;;;;;;5084342;28;20465;-71
2024/01/08 04:47:15;;;;;;;1999.90;999.90;;;-3.40;99.90;;;;;;5070744;28;20457;-71
2024/01/08 04:49:42;;;;;;;1999.90;999.90;;;-3.40;99.90;;;;;;5071137;28;20497;-70
2024/01/08 04:52:09;;;;;;;1999.90;999.90;;;-3.50;99.90;;;;;;5076619;28;20445;-72
2024/01/08 04:54:35;;;;;;;1999.90;999.90;;;-3.60;99.90;;;;;;5080864;28;20461;-72
2024/01/08 04:57:04;;;;;;;1999.90;999.90;;;-3.70;99.90;;;;;;5075300;28;20429;-69
2024/01/08 04:59:30;;;;;;;1999.90;999.90;;;-3.80;99.90;;;;;;5070409;28;20416;-71
2024/01/08 05:01:57;;;;;;;1999.90;999.90;;;-3.80;99.90;;;;;;5082502;28;20410;-72
2024/01/08 05:04:24;;;;;;;1999.90;999.90;;;-3.90;99.90;;;;;;5074265;28;20411;-70
2024/01/08 05:06:50;;;;;;;1999.90;999.90;;;-3.90;99.90;;;;;;5071060;28;20937;-72
2024/01/08 05:09:17;;;;;;;1999.90;999.90;;;-3.90;99.90;;;;;;5069450;28;20881;-69
2024/01/08 05:11:44;;;;;;;1999.90;999.90;;;-4.00;99.90;;;;;;5070582;28;20882;-67
2024/01/08 05:14:12;;;;;;;1999.90;999.90;;;-3.70;99.90;;;;;;5081407;28;20408;-68
2024/01/08 05:16:38;;;;;;;1999.90;999.90;;;-3.60;99.90;;;;;;5077801;28;20435;-68
2024/01/08 05:19:05;;;;;;;1999.90;999.90;;;-3.80;99.90;;;;;;5067922;28;20416;-66
2024/01/08 05:21:32;;;;;;;1999.90;999.90;;;-4.10;99.90;;;;;;5077799;28;20443;-68
2024/01/08 05:23:58;;;;;;;1999.90;999.90;;;-4.20;99.90;;;;;;5082038;28;20420;-69
2024/01/08 05:26:25;;;;;;;1999.90;999.90;;;-4.20;99.90;;;;;;5069602;28;20423;-69
2024/01/08 05:28:52;;;;;;;1999.90;999.90;;;-4.20;99.90;;;;;;5069891;28;20413;-68
2024/01/08 05:31:22;;;;;;;1999.90;999.90;;;-4.30;99.90;;;;;;5073829;28;20496;-70
2024/01/08 05:33:49;;;;;;;1999.90;999.90;;;-4.30;99.90;;;;;;5069578;28;20411;-69
2024/01/08 05:36:16;;;;;;;1999.90;999.90;;;-4.30;99.90;;;;;;5072462;28;21217;-69
2024/01/08 05:38:42;;;;;;;1999.90;999.90;;;-4.30;99.90;;;;;;5070298;28;20411;-69
2024/01/08 05:41:09;;;;;;;1999.90;999.90;;;-4.30;99.90;;;;;;5070444;28;20476;-67
2024/01/08 05:43:37;;;;;;;1999.90;999.90;;;-4.30;99.90;;;;;;5070006;28;20415;-68
2024/01/08 05:46:05;;;;;;;1999.90;999.90;;;-4.30;99.90;;;;;;5069169;28;20897;-69
2024/01/08 05:48:37;;;;;;;1999.90;999.90;;;-4.20;99.90;;;;;;5069896;28;20486;-69
2024/01/08 05:51:04;;;;;;;1999.90;999.90;;;-3.80;99.90;;;;;;5073021;28;20415;-70
2024/01/08 05:53:32;;;;;;;1999.90;999.90;;;-4.30;99.90;;;;;;5072638;28;20408;-69
2024/01/08 05:55:58;;;;;;;1999.90;999.90;;;-4.10;99.90;;;;;;5069400;28;20523;-69
2024/01/08 05:58:25;;;;;;;1999.90;999.90;;;-4.30;99.90;;;;;;5069764;28;20461;-68
2024/01/08 06:00:53;;;;;;;1999.90;999.90;;;-4.40;99.90;;;;;;5062976;28;20405;-66
2024/01/08 06:03:20;;;;;;;1999.90;999.90;;;-4.50;99.90;;;;;;5074450;28;20412;-67
2024/01/08 06:05:48;;;;;;;1999.90;999.90;;;-4.60;99.90;;;;;;5074461;28;20467;-70
2024/01/08 06:08:15;;;;;;;1999.90;999.90;;;-4.60;99.90;;;;;;5069832;28;20509;-67
2024/01/08 06:10:42;;;;;;;1999.90;999.90;;;-4.60;99.90;;;;;;5069540;28;20419;-69
2024/01/08 06:13:10;;;;;;;1999.90;999.90;;;-4.70;99.90;;;;;;5072594;28;20407;-69
2024/01/08 06:15:37;;;;;;;1999.90;999.90;;;-4.70;99.90;;;;;;5073049;28;20431;-69
2024/01/08 06:18:05;;;;;;;1999.90;999.90;;;-4.70;99.90;;;;;;5071957;28;20412;-69
2024/01/08 06:20:33;;;;;;;1999.90;999.90;;;-4.70;99.90;;;;;;5069504;28;20454;-70
2024/01/08 06:23:01;;;;;;;1999.90;999.90;;;-4.80;99.90;;;;;;5070961;28;20485;-69
2024/01/08 06:25:28;;;;;;;1999.90;999.90;;;-4.80;99.90;;;;;;5073059;28;20458;-69
2024/01/08 06:27:55;;;;;;;1999.90;999.90;;;-4.80;99.90;;;;;;5071070;28;20827;-69
2024/01/08 06:30:21;;;;;;;1999.90;999.90;;;-4.70;99.90;;;;;;5068925;28;20411;-69
2024/01/08 06:32:48;;;;;;;1999.90;999.90;;;-4.50;99.90;;;;;;5102497;28;20405;-71
2024/01/08 06:35:15;;;;;;;1999.90;999.90;;;-4.70;99.90;;;;;;5097627;28;20458;-71
2024/01/08 06:37:43;;;;;;;1999.90;999.90;;;-4.80;99.90;;;;;;5090600;28;20428;-70
2024/01/08 06:40:12;;;;;;;1999.90;999.90;;;-4.80;99.90;;;;;;5089088;28;20407;-70
2024/01/08 06:42:39;;;;;;;1999.90;999.90;;;-4.80;99.90;;;;;;5070113;28;20431;-69
2024/01/08 06:45:06;;;;;;;1999.90;999.90;;;-4.80;99.90;;;;;;5070766;28;20429;-69
2024/01/08 06:47:33;;;;;;;1999.90;999.90;;;-4.90;99.90;;;;;;5071965;28;20465;-70
2024/01/08 06:49:59;;;;;;;1999.90;999.90;;;-4.90;99.90;;;;;;5086550;28;20496;-70
2024/01/08 06:52:26;;;;;;;1999.90;999.90;;;-4.80;99.90;;;;;;5093930;28;20443;-69
2024/01/08 06:54:53;;;;;;;1999.90;999.90;;;-4.80;99.90;;;;;;5079106;28;20489;-69
2024/01/08 06:57:22;;;;;;;1999.90;999.90;;;-4.90;99.90;;;;;;5080984;28;20471;-69
2024/01/08 06:59:49;;;;;;;1999.90;999.90;;;-5.00;99.90;;;;;;5093950;28;20452;-69
2024/01/08 07:02:16;;;;;;;1999.90;999.90;;;-5.00;99.90;;;;;;5084750;28;21124;-68
2024/01/08 07:04:43;;;;;;;1999.90;999.90;;;-5.00;99.90;;;;;;5073355;28;20412;-69
2024/01/08 07:07:10;;;;;;;1999.90;999.90;;;-5.10;99.90;;;;;;5079643;28;20466;-70
2024/01/08 07:09:37;;;;;;;1999.90;999.90;;;-5.20;99.90;;;;;;5093303;28;20459;-69
2024/01/08 07:12:04;;;;;;;1999.90;999.90;;;-5.20;99.90;;;;;;5086186;28;20430;-69
2024/01/08 07:14:32;;;;;;;1999.90;999.90;;;-5.20;99.90;;;;;;5071278;28;20431;-69
2024/01/08 07:16:59;;;;;;;1999.90;999.90;;;-5.20;99.90;;;;;;5072201;28;20427;-69
2024/01/08 07:19:26;;;;;;;1999.90;999.90;;;-5.20;99.90;;;;;;5070508;28;20531;-69
2024/01/08 07:21:52;;;;;;;1999.90;999.90;;;-5.30;99.90;;;;;;5079628;28;20418;-69
2024/01/08 07:24:19;;;;;;;1999.90;999.90;;;-5.30;99.90;;;;;;5086590;28;20414;-69
2024/01/08 07:26:46;;;;;;;1999.90;999.90;;;-5.30;99.90;;;;;;5085625;28;20494;-69
2024/01/08 07:29:13;;;;;;;1999.90;999.90;;;-5.30;99.90;;;;;;5078667;28;20510;-70
2024/01/08 07:31:41;;;;;;;1999.90;999.90;;;-5.20;99.90;;;;;;5067858;28;20921;-69
2024/01/08 07:34:08;;;;;;;1999.90;999.90;;;-5.30;99.90;;;;;;5064816;28;20444;-69
2024/01/08 07:36:34;;;;;;;1999.90;999.90;;;-5.20;99.90;;;;;;5084754;28;20428;-69
2024/01/08 07:39:01;;;;;;;1999.90;999.90;;;-5.30;99.90;;;;;;5082745;28;20431;-69
2024/01/08 07:41:28;;;;;;;1999.90;999.90;;;-5.30;99.90;;;;;;5071522;28;20496;-69
2024/01/08 07:43:55;;;;;;;1999.90;999.90;;;-5.30;99.90;;;;;;5079925;28;20409;-69
2024/01/08 07:46:22;;;;;;;1999.90;999.90;;;-5.20;99.90;;;;;;5082302;28;20406;-69
2024/01/08 07:48:50;;;;;;;1999.90;999.90;;;-5.20;99.90;;;;;;5086983;28;20437;-68
2024/01/08 07:51:20;;;;;;;1999.90;999.90;;;-5.10;99.90;;;;;;5074833;28;20469;-69
2024/01/08 07:53:47;;;;;;;1999.90;999.90;;;-5.20;99.90;;;;;;5077378;28;20414;-69
2024/01/08 07:56:14;;;;;;;1999.90;999.90;;;-4.80;99.90;;;;;;5079904;28;20414;-69
2024/01/08 07:58:40;;;;;;;1999.90;999.90;;;-5.20;99.90;;;;;;5085624;28;20418;-67
2024/01/08 08:01:08;;;;;;;1999.90;999.90;;;-5.20;99.90;;;;;;5079451;28;20434;-68
2024/01/08 08:03:35;;;;;;;1999.90;999.90;;;-4.80;99.90;;;;;;5072637;28;20431;-69
2024/01/08 08:06:03;;;;;;;1999.90;999.90;;;-5.20;99.90;;;;;;5075109;28;20428;-67
2024/01/08 08:08:34;;;;;;;1999.90;999.90;;;-5.20;99.90;;;;;;5067898;28;20432;-69
2024/01/08 08:11:02;;;;;;;1999.90;999.90;;;-5.10;99.90;;;;;;5068524;28;20424;-68
2024/01/08 08:13:28;;;;;;;1999.90;999.90;;;-5.00;99.90;;;;;;5073836;28;20431;-68
2024/01/08 08:15:55;;;;;;;1999.90;999.90;;;-5.10;99.90;;;;;;5075271;28;20428;-69
2024/01/08 08:18:22;;;;;;;1999.90;999.90;;;-5.10;99.90;;;;;;5068375;28;20454;-69
2024/01/08 08:20:49;;;;;;;1999.90;999.90;;;-5.00;99.90;;;;;;5075025;28;20423;-69
2024/01/08 08:23:17;;;;;;;1999.90;999.90;;;-5.00;99.90;;;;;;5086072;28;20431;-69
2024/01/08 08:25:44;;;;;;;1999.90;999.90;;;-5.00;99.90;;;;;;5085961;28;20434;-69
2024/01/08 08:28:10;;;;;;;1999.90;999.90;;;-4.90;99.90;;;;;;5079472;28;20432;-70
2024/01/08 08:30:37;;;;;;;1999.90;999.90;;;-4.90;99.90;;;;;;5074773;28;20427;-69
2024/01/08 08:33:04;;;;;;;1999.90;999.90;;;-4.80;99.90;;;;;;5070862;28;20431;-69
2024/01/08 08:35:31;;;;;;;1999.90;999.90;;;-4.70;99.90;;;;;;5070577;28;20435;-69
2024/01/08 08:37:58;;;;;;;1999.90;999.90;;;-4.60;99.90;;;;;;5076758;28;20432;-69
2024/01/08 08:40:26;;;;;;;1999.90;999.90;;;-4.60;99.90;;;;;;5077414;28;20438;-71
2024/01/08 08:42:53;;;;;;;1999.90;999.90;;;-4.60;99.90;;;;;;5068850;28;20439;-68
2024/01/08 08:45:21;;;;;;;1999.90;999.90;;;-4.50;99.90;;;;;;5069668;28;20949;-69
2024/01/08 08:47:47;;;;;;;1999.90;999.90;;;-4.50;99.90;;;;;;5078607;28;20483;-69
2024/01/08 08:50:14;;;;;;;1999.90;999.90;;;-4.50;99.90;;;;;;5080129;28;20406;-69
2024/01/08 08:52:43;;;;;;;1999.90;999.90;;;-4.60;99.90;;;;;;5085604;28;20414;-69
2024/01/08 08:55:10;;;;;;;1999.90;999.90;;;-4.50;99.90;;;;;;5082709;28;20513;-69
2024/01/08 08:57:38;;;;;;;1999.90;999.90;;;-4.50;99.90;;;;;;5075063;28;20506;-69
2024/01/08 09:00:07;;;;;;;1999.90;999.90;;;-4.50;99.90;;;;;;5077595;28;20483;-68
2024/01/08 09:02:34;;;;;;;1999.90;999.90;;;-4.40;99.90;;;;;;5074559;28;20440;-67
2024/01/08 09:05:01;;;;;;;1999.90;999.90;;;-4.20;99.90;;;;;;5072990;28;20443;-68
2024/01/08 09:07:27;;;;;;;1999.90;999.90;;;-4.20;99.90;;;;;;5066810;28;20971;-69
2024/01/08 09:09:54;;;;;;;1999.90;999.90;;;-4.20;99.90;;;;;;5068304;28;20987;-68
2024/01/08 09:12:21;;;;;;;1999.90;999.90;;;-4.10;99.90;;;;;;5068100;28;20493;-69
2024/01/08 09:14:49;;;;;;;1999.90;999.90;;;-4.00;99.90;;;;;;5077639;28;20934;-69
2024/01/08 09:17:15;;;;;;;1999.90;999.90;;;-4.00;99.90;;;;;;5067445;28;20431;-69
2024/01/08 09:19:42;;;;;;;1999.90;999.90;;;-3.80;99.90;;;;;;5068021;28;20427;-69
2024/01/08 09:22:09;;;;;;;1999.90;999.90;;;-4.00;99.90;;;;;;5066679;28;20427;-69
2024/01/08 09:24:36;;;;;;;1999.90;999.90;;;-3.50;99.90;;;;;;5071302;28;21037;-69
2024/01/08 09:27:03;;;;;;;1999.90;999.90;;;-4.10;99.90;;;;;;5068276;28;20530;-69
2024/01/08 09:29:30;;;;;;;1999.90;999.90;;;-4.10;99.90;;;;;;5068085;28;20595;-68
2024/01/08 09:31:58;;;;;;;1999.90;999.90;;;-4.20;99.90;;;;;;5068528;28;20427;-68
2024/01/08 09:34:25;;;;;;;1999.90;999.90;;;-4.20;99.90;;;;;;5069969;28;20435;-68
2024/01/08 09:36:51;;;;;;;1999.90;999.90;;;-4.20;99.90;;;;;;5069627;28;20427;-68
2024/01/08 09:39:18;;;;;;;1999.90;999.90;;;-4.30;99.90;;;;;;5069771;28;20431;-68
2024/01/08 09:41:48;;;;;;;1999.90;999.90;;;-4.20;99.90;;;;;;5068649;28;20427;-67
2024/01/08 09:44:16;;;;;;;1999.90;999.90;;;-4.30;99.90;;;;;;5068900;28;20431;-68
2024/01/08 09:46:47;;;;;;;1999.90;999.90;;;-4.30;99.90;;;;;;5069579;28;20492;-68
2024/01/08 09:49:16;;;;;;;1999.90;999.90;;;-4.30;99.90;;;;;;5069772;28;20458;-69
2024/01/08 09:51:44;;;;;;;1999.90;999.90;;;-3.90;99.90;;;;;;5070318;28;20411;-68
2024/01/08 09:54:12;;;;;;;1999.90;999.90;;;-4.10;99.90;;;;;;5072307;28;20489;-68
2024/01/08 09:56:39;;;;;;;1999.90;999.90;;;-4.00;99.90;;;;;;5069289;28;20925;-71
2024/01/08 09:59:05;;;;;;;1999.90;999.90;;;-4.00;99.90;;;;;;5069637;28;20423;-68
2024/01/08 10:01:32;;;;;;;1999.90;999.90;;;-3.90;99.90;;;;;;5069114;28;20427;-66
2024/01/08 10:04:00;;;;;;;1999.90;999.90;;;-3.80;99.90;;;;;;5068520;28;20439;-68
2024/01/08 10:06:28;;;;;;;1999.90;999.90;;;-3.90;99.90;;;;;;5076308;28;20759;-69
2024/01/08 10:08:55;;;;;;;1999.90;999.90;;;-3.80;99.90;;;;;;5072705;28;20398;-68
2024/01/08 10:11:22;;;;;;;1999.90;999.90;;;-3.90;99.90;;;;;;5068809;28;20444;-68
2024/01/08 10:13:50;;;;;;;1999.90;999.90;;;-3.90;99.90;;;;;;5071816;28;20426;-68
2024/01/08 10:16:17;;;;;;;1999.90;999.90;;;-3.90;99.90;;;;;;5079281;28;20554;-69
2024/01/08 10:18:46;;;;;;;1999.90;999.90;;;-3.70;99.90;;;;;;5084890;28;20983;-69
2024/01/08 10:21:14;;;;;;;1999.90;999.90;;;-4.00;99.90;;;;;;5082290;28;20467;-69
2024/01/08 10:23:42;;;;;;;1999.90;999.90;;;-3.80;99.90;;;;;;5080615;28;20502;-68
2024/01/08 10:26:12;;;;;;;1999.90;999.90;;;-3.70;99.90;;;;;;5074308;28;20419;-70
2024/01/08 10:28:38;;;;;;;1999.90;999.90;;;-3.60;99.90;;;;;;5073500;28;20453;-69
2024/01/08 10:31:06;;;;;;;1999.90;999.90;;;-3.80;99.90;;;;;;5075203;28;20417;-69
2024/01/08 10:33:33;;;;;;;1999.90;999.90;;;-3.90;99.90;;;;;;5087069;28;20402;-69
2024/01/08 10:36:01;;;;;;;1999.90;999.90;;;-3.50;99.90;;;;;;5065220;28;20406;-68
2024/01/08 10:38:30;;;;;;;1999.90;999.90;;;-3.80;99.90;;;;;;5072024;28;20514;-67
2024/01/08 10:41:00;;;;;;;1999.90;999.90;;;-3.70;99.90;;;;;;5069632;28;20893;-69
2024/01/08 10:43:27;;;;;;;1999.90;999.90;;;-3.80;99.90;;;;;;5069739;28;20502;-68
2024/01/08 10:45:57;;;;;;;1999.90;999.90;;;-3.60;99.90;;;;;;5062615;28;20402;-69
2024/01/08 10:48:34;;;;;;;1999.90;999.90;;;-3.70;99.90;;;;;;5071873;28;20427;-69
2024/01/08 10:51:03;;;;;;;1999.90;999.90;;;-3.60;99.90;;;;;;5071700;28;20402;-68
2024/01/08 10:53:36;;;;;;;1999.90;999.90;;;-3.30;99.90;;;;;;5082737;28;20501;-69
2024/01/08 10:56:07;;;;;;;1999.90;999.90;;;-3.60;99.90;;;;;;5072655;28;20443;-69
2024/01/08 10:58:35;;;;;;;1999.90;999.90;;;-3.60;99.90;;;;;;5064423;28;20431;-68
2024/01/08 11:01:03;;;;;;;1999.90;999.90;;;-3.60;99.90;;;;;;5069597;28;20909;-69
2024/01/08 11:03:30;;;;;;;1999.90;999.90;;;-3.50;99.90;;;;;;5068977;28;20489;-67
2024/01/08 11:06:02;;;;;;;1999.90;999.90;;;-3.50;99.90;;;;;;5068581;28;21592;-69
2024/01/08 11:08:31;;;;;;;1999.90;999.90;;;-3.50;99.90;;;;;;5069149;28;20411;-70
2024/01/08 11:11:08;;;;;;;1999.90;999.90;;;-3.40;99.90;;;;;;5066663;28;20913;-69
2024/01/08 11:13:35;;;;;;;1999.90;999.90;;;-3.40;99.90;;;;;;5069238;28;20408;-69
2024/01/08 11:16:07;;;;;;;1999.90;999.90;;;-3.30;99.90;;;;;;5068409;28;20435;-68
2024/01/08 11:18:33;;;;;;;1999.90;999.90;;;-3.40;99.90;;;;;;5068064;28;20510;-69
2024/01/08 11:21:01;;;;;;;1999.90;999.90;;;-3.20;99.90;;;;;;5069641;28;20407;-69
2024/01/08 11:23:41;;;;;;;1999.90;999.90;;;-3.40;99.90;;;;;;5071249;28;20892;-67
2024/01/08 11:26:14;;;;;;;1999.90;999.90;;;-3.40;99.90;;;;;;5076247;28;20784;-68
2024/01/08 11:28:42;;;;;;;1999.90;999.90;;;-3.20;99.90;;;;;;5067762;28;20423;-65
2024/01/08 11:31:39;;;;;;;1999.90;999.90;;;-3.10;99.90;;;;;;5066990;28;20929;-68
2024/01/08 11:34:38;;;;;;;1999.90;999.90;;;-3.20;99.90;;;;;;5071756;28;20495;-69
2024/01/08 11:37:30;;;;;;;1999.90;999.90;;;-3.00;99.90;;;;;;5065392;28;20446;-68
2024/01/08 11:39:57;;;;;;;1999.90;999.90;;;-3.00;99.90;;;;;;5072499;28;20755;-70
2024/01/08 11:42:25;;;;;;;1999.90;999.90;;;-3.00;99.90;;;;;;5071226;28;20417;-69
2024/01/08 11:44:52;;;;;;;1999.90;999.90;;;-2.90;99.90;;;;;;5074422;28;20417;-67
2024/01/08 11:47:19;;;;;;;1999.90;999.90;;;-2.90;99.90;;;;;;5073437;28;20407;-69
2024/01/08 11:49:45;;;;;;;1999.90;999.90;;;-2.90;99.90;;;;;;5072705;28;20898;-68
2024/01/08 11:52:13;;;;;;;1999.90;999.90;;;-2.90;99.90;;;;;;5072083;28;20418;-69
2024/01/08 11:54:40;;;;;;;1999.90;999.90;;;-3.10;99.90;;;;;;5088317;28;20421;-69
2024/01/08 11:57:09;;;;;;;1999.90;999.90;;;-3.00;99.90;;;;;;5074986;28;20423;-68
2024/01/08 11:59:37;;;;;;;1999.90;999.90;;;-3.00;99.90;;;;;;5072637;28;20485;-69